createdAt,value
2023-04-18T00:01:19.049Z,10.37
2023-04-18T00:03:47.189Z,10.54
2023-04-18T00:06:15.108Z,10.71
2023-04-18T00:08:42.890Z,10.33
2023-04-18T00:11:10.701Z,10.46
2023-04-18T00:13:39.353Z,10.23
2023-04-18T00:16:08.776Z,10.02
2023-04-18T00:18:39.838Z,10.08
2023-04-18T00:21:08.611Z,10.38
2023-04-18T00:23:37.173Z,10.29
2023-04-18T00:26:05.003Z,10.02
2023-04-18T00:28:32.818Z,9.76
2023-04-18T00:31:00.701Z,10.33
2023-04-18T00:33:28.604Z,9.89
2023-04-18T00:35:57.761Z,9.70
2023-04-18T00:38:25.835Z,9.91
2023-04-18T00:40:53.602Z,9.72
2023-04-18T00:43:24.544Z,9.95
2023-04-18T00:45:52.339Z,9.90
2023-04-18T00:48:20.161Z,9.76
2023-04-18T00:50:47.965Z,9.75
2023-04-18T00:53:17.406Z,9.90
2023-04-18T00:55:45.792Z,9.79
2023-04-18T00:58:13.667Z,9.97
2023-04-18T01:00:42.646Z,9.94
2023-04-18T01:03:14.774Z,10.08
2023-04-18T01:05:42.862Z,9.54
2023-04-18T01:08:10.724Z,9.99
2023-04-18T01:10:39.946Z,9.38
2023-04-18T01:13:13.279Z,9.63
2023-04-18T01:15:42.760Z,9.21
2023-04-18T01:18:11.718Z,9.77
2023-04-18T01:20:42.819Z,9.20
2023-04-18T01:23:11.271Z,9.33
2023-04-18T01:25:40.576Z,9.45
2023-04-18T01:28:08.621Z,9.83
2023-04-18T01:30:36.872Z,9.96
2023-04-18T01:33:05.753Z,10.08
2023-04-18T01:35:34.344Z,10.00
2023-04-18T01:38:02.287Z,10.06
2023-04-18T01:40:30.863Z,10.20
2023-04-18T01:43:00.017Z,10.26
2023-04-18T01:45:27.898Z,10.08
2023-04-18T01:47:55.906Z,9.37
2023-04-18T01:50:24.152Z,9.75
2023-04-18T01:52:51.999Z,9.60
2023-04-18T01:55:19.874Z,9.89
2023-04-18T01:57:47.698Z,9.65
2023-04-18T02:00:17.522Z,10.14
2023-04-18T02:02:45.418Z,9.63
2023-04-18T02:05:15.147Z,9.62
2023-04-18T02:07:43.099Z,9.49
2023-04-18T02:10:12.996Z,9.29
2023-04-18T02:12:40.779Z,9.59
2023-04-18T02:15:09.595Z,9.38
2023-04-18T02:17:38.878Z,9.43
2023-04-18T02:20:09.258Z,9.48
2023-04-18T02:22:37.653Z,9.16
2023-04-18T02:25:05.883Z,9.61
2023-04-18T02:27:33.694Z,9.37
2023-04-18T02:30:02.582Z,9.37
2023-04-18T02:32:34.412Z,9.74
2023-04-18T02:35:03.689Z,9.53
2023-04-18T02:37:31.559Z,9.23
2023-04-18T02:39:59.315Z,9.78
2023-04-18T02:42:30.827Z,9.46
2023-04-18T02:44:59.018Z,9.25
2023-04-18T02:47:27.534Z,9.20
2023-04-18T02:49:55.446Z,8.90
2023-04-18T02:52:26.149Z,9.09
2023-04-18T02:54:54.144Z,9.17
2023-04-18T02:57:26.808Z,9.39
2023-04-18T03:00:14.760Z,9.73
2023-04-18T03:03:01.437Z,8.91
2023-04-18T03:05:49.805Z,9.14
2023-04-18T03:08:19.117Z,9.07
2023-04-18T03:10:48.790Z,9.28
2023-04-18T03:13:19.197Z,8.78
2023-04-18T03:15:47.123Z,9.06
2023-04-18T03:18:14.939Z,9.60
2023-04-18T03:20:43.890Z,9.24
2023-04-18T03:23:11.800Z,8.82
2023-04-18T03:25:41.484Z,9.13
2023-04-18T03:28:10.055Z,9.21
2023-04-18T03:30:37.910Z,8.58
2023-04-18T03:33:06.853Z,8.80
2023-04-18T03:35:34.857Z,9.12
2023-04-18T03:38:02.740Z,9.15
2023-04-18T03:40:34.159Z,9.07
2023-04-18T03:43:09.328Z,9.36
2023-04-18T03:45:37.459Z,9.29
2023-04-18T03:48:07.144Z,9.33
2023-04-18T03:50:38.933Z,9.36
2023-04-18T03:53:10.324Z,9.53
2023-04-18T03:55:39.788Z,9.57
2023-04-18T03:58:09.361Z,9.87
2023-04-18T04:00:37.328Z,9.57
2023-04-18T04:03:09.143Z,9.87
2023-04-18T04:05:37.163Z,9.91
2023-04-18T04:08:05.860Z,9.64
2023-04-18T04:10:34.911Z,9.77
2023-04-18T04:13:02.771Z,9.83
2023-04-18T04:15:34.201Z,10.02
2023-04-18T04:18:06.945Z,9.73
2023-04-18T04:20:37.672Z,9.61
2023-04-18T04:23:11.848Z,9.74
2023-04-18T04:25:40.858Z,9.97
2023-04-18T04:28:17.285Z,9.86
2023-04-18T04:30:55.548Z,9.87
2023-04-18T04:33:25.160Z,10.08
2023-04-18T04:35:55.631Z,9.57
2023-04-18T04:38:23.978Z,9.72
2023-04-18T04:40:53.243Z,10.07
2023-04-18T04:43:21.593Z,10.20
2023-04-18T04:45:51.550Z,10.07
2023-04-18T04:48:25.021Z,10.16
2023-04-18T04:50:55.134Z,10.36
2023-04-18T04:53:23.582Z,10.51
2023-04-18T04:55:52.381Z,10.34
2023-04-18T04:58:20.803Z,10.53
2023-04-18T05:01:09.121Z,10.25
2023-04-18T05:03:39.375Z,10.21
2023-04-18T05:06:07.622Z,9.59
2023-04-18T05:08:35.624Z,9.85
2023-04-18T05:11:03.756Z,9.60
2023-04-18T05:13:31.591Z,10.15
2023-04-18T05:16:00.065Z,9.65
2023-04-18T05:18:27.868Z,9.76
2023-04-18T05:20:57.037Z,9.86
2023-04-18T05:23:24.974Z,9.94
2023-04-18T05:25:53.308Z,10.12
2023-04-18T05:28:21.159Z,10.20
2023-04-18T05:30:48.989Z,10.09
2023-04-18T05:33:16.852Z,10.15
2023-04-18T05:35:44.751Z,10.43
2023-04-18T05:38:13.907Z,10.89
2023-04-18T05:40:42.424Z,10.96
2023-04-18T05:43:10.164Z,10.54
2023-04-18T05:45:37.967Z,10.56
2023-04-18T05:48:05.981Z,10.72
2023-04-18T05:50:33.823Z,10.44
2023-04-18T05:53:01.626Z,11.00
2023-04-18T05:55:30.877Z,10.91
2023-04-18T05:57:58.720Z,10.52
2023-04-18T06:00:26.515Z,11.06
2023-04-18T06:02:54.520Z,10.49
2023-04-18T06:05:22.804Z,10.64
2023-04-18T06:07:50.770Z,10.96
2023-04-18T06:10:18.624Z,10.33
2023-04-18T06:12:47.832Z,10.28
2023-04-18T06:15:15.663Z,10.59
2023-04-18T06:17:44.570Z,10.21
2023-04-18T06:20:12.639Z,10.38
2023-04-18T06:22:40.465Z,10.56
2023-04-18T06:25:09.987Z,10.67
2023-04-18T06:27:38.477Z,11.23
2023-04-18T06:30:09.213Z,11.02
2023-04-18T06:32:37.094Z,11.00
2023-04-18T06:35:05.207Z,10.89
2023-04-18T06:37:33.203Z,11.44
2023-04-18T06:40:01.012Z,10.82
2023-04-18T06:42:28.855Z,10.90
2023-04-18T06:44:56.680Z,10.72
2023-04-18T06:47:26.027Z,10.65
2023-04-18T06:49:53.910Z,10.71
2023-04-18T06:52:21.721Z,11.28
2023-04-18T06:54:49.505Z,11.43
2023-04-18T06:57:17.401Z,11.56
2023-04-18T06:59:45.153Z,11.02
2023-04-18T07:02:13.053Z,11.29
2023-04-18T07:04:42.333Z,10.72
2023-04-18T07:07:10.167Z,10.91
2023-04-18T07:09:38.018Z,11.17
2023-04-18T07:12:06.334Z,11.18
2023-04-18T07:14:34.383Z,10.91
2023-04-18T07:17:02.958Z,10.67
2023-04-18T07:19:30.872Z,10.94
2023-04-18T07:21:59.999Z,10.72
2023-04-18T07:24:27.940Z,10.89
2023-04-18T07:26:55.914Z,11.33
2023-04-18T07:29:23.881Z,12.08
2023-04-18T07:31:52.949Z,12.28
2023-04-18T07:34:22.009Z,12.30
2023-04-18T07:36:50.066Z,11.97
2023-04-18T07:39:19.349Z,11.77
2023-04-18T07:41:47.208Z,11.43
2023-04-18T07:44:15.164Z,11.84
2023-04-18T07:46:43.122Z,12.03
2023-04-18T07:49:11.142Z,11.97
2023-04-18T07:51:39.149Z,11.95
2023-04-18T07:54:07.259Z,12.08
2023-04-18T07:56:36.423Z,11.78
2023-04-18T07:59:04.234Z,12.16
2023-04-18T08:01:32.115Z,12.48
2023-04-18T08:04:02.059Z,12.30
2023-04-18T08:06:30.223Z,11.79
2023-04-18T08:08:58.982Z,12.40
2023-04-18T08:11:26.907Z,12.44
2023-04-18T08:13:56.067Z,12.71
2023-04-18T08:16:23.959Z,12.86
2023-04-18T08:18:51.796Z,12.83
2023-04-18T08:21:19.941Z,11.70
2023-04-18T08:23:47.815Z,11.94
2023-04-18T08:26:15.650Z,12.31
2023-04-18T08:28:45.969Z,12.06
2023-04-18T08:31:17.079Z,12.62
2023-04-18T08:33:44.984Z,12.01
2023-04-18T08:36:13.587Z,12.17
2023-04-18T08:38:41.385Z,11.74
2023-04-18T08:41:09.602Z,12.38
2023-04-18T08:43:38.825Z,12.20
2023-04-18T08:46:07.938Z,11.56
2023-04-18T08:48:38.041Z,12.42
2023-04-18T08:51:07.214Z,12.12
2023-04-18T08:53:35.211Z,12.12
2023-04-18T08:56:03.163Z,12.04
2023-04-18T08:58:32.432Z,12.05
2023-04-18T09:01:00.916Z,11.94
2023-04-18T09:03:39.730Z,11.74
2023-04-18T09:06:09.423Z,12.02
2023-04-18T09:08:37.274Z,12.28
2023-04-18T09:11:21.847Z,12.20
2023-04-18T09:13:50.342Z,11.94
2023-04-18T09:16:20.682Z,12.39
2023-04-18T09:19:13.408Z,12.94
2023-04-18T09:21:44.382Z,12.62
2023-04-18T09:24:20.951Z,12.09
2023-04-18T09:26:50.735Z,12.71
2023-04-18T09:29:22.344Z,13.08
2023-04-18T09:32:01.215Z,12.79
2023-04-18T09:34:34.022Z,12.87
2023-04-18T09:37:10.161Z,13.38
2023-04-18T09:39:39.163Z,12.89
2023-04-18T09:42:07.906Z,12.66
2023-04-18T09:44:35.935Z,13.11
2023-04-18T09:47:03.868Z,13.55
2023-04-18T09:49:33.780Z,13.27
2023-04-18T09:52:06.305Z,13.13
2023-04-18T09:54:38.775Z,13.04
2023-04-18T09:57:12.918Z,13.48
2023-04-18T09:59:47.709Z,13.65
2023-04-18T10:02:21.001Z,13.81
2023-04-18T10:04:51.675Z,14.42
2023-04-18T10:07:19.912Z,14.48
2023-04-18T10:09:48.685Z,14.65
2023-04-18T10:12:18.573Z,14.44
2023-04-18T10:14:46.708Z,14.93
2023-04-18T10:17:15.950Z,15.10
2023-04-18T10:19:46.087Z,15.35
2023-04-18T10:22:15.233Z,14.74
2023-04-18T10:24:50.270Z,15.00
2023-04-18T10:27:18.822Z,14.84
2023-04-18T10:29:51.042Z,14.90
2023-04-18T10:32:20.205Z,15.21
2023-04-18T10:34:48.717Z,15.80
2023-04-18T10:37:18.909Z,15.58
2023-04-18T10:39:56.858Z,16.21
2023-04-18T10:42:58.156Z,15.15
2023-04-18T10:45:28.496Z,14.80
2023-04-18T10:48:24.930Z,15.21
2023-04-18T10:51:16.142Z,15.77
2023-04-18T10:53:52.610Z,16.17
2023-04-18T10:56:20.577Z,15.64
2023-04-18T10:58:52.131Z,16.36
2023-04-18T11:01:27.998Z,16.74
2023-04-18T11:03:58.367Z,16.33
2023-04-18T11:06:27.167Z,16.54
2023-04-18T11:12:04.299Z,16.40
2023-04-18T11:14:47.230Z,17.28
2023-04-18T11:17:23.782Z,16.74
2023-04-18T11:19:52.294Z,16.88
2023-04-18T11:22:20.165Z,16.46
2023-04-18T11:24:48.338Z,16.94
2023-04-18T11:27:17.622Z,16.91
2023-04-18T11:29:45.665Z,16.66
2023-04-18T11:32:13.591Z,16.36
2023-04-18T11:34:41.591Z,16.74
2023-04-18T11:37:09.585Z,17.45
2023-04-18T11:39:42.084Z,17.33
2023-04-18T11:42:10.502Z,17.78
2023-04-18T11:44:42.709Z,17.97
2023-04-18T11:47:24.106Z,17.59
2023-04-18T11:49:58.131Z,18.13
2023-04-18T11:52:28.137Z,18.37
2023-04-18T11:54:56.601Z,17.36
2023-04-18T11:57:25.946Z,19.43
2023-04-18T11:59:57.430Z,19.19
2023-04-18T12:02:27.340Z,17.39
2023-04-18T12:04:57.515Z,18.17
2023-04-18T12:07:36.085Z,18.10
2023-04-18T12:10:05.686Z,17.71
2023-04-18T12:12:33.805Z,17.78
2023-04-18T12:15:05.156Z,17.60
2023-04-18T12:17:33.423Z,17.77
2023-04-18T12:20:08.926Z,17.67
2023-04-18T12:22:42.937Z,18.06
2023-04-18T12:25:20.086Z,18.33
2023-04-18T12:27:55.321Z,18.95
2023-04-18T12:30:25.908Z,19.27
2023-04-18T12:32:55.810Z,18.71
2023-04-18T12:35:24.167Z,18.68
2023-04-18T12:37:53.866Z,18.48
2023-04-18T12:40:23.040Z,19.72
2023-04-18T12:42:52.013Z,21.93
2023-04-18T12:45:21.753Z,21.57
2023-04-18T12:47:52.349Z,22.21
2023-04-18T12:50:22.629Z,21.46
2023-04-18T12:52:52.040Z,20.23
2023-04-18T12:55:20.764Z,19.94
2023-04-18T12:57:48.839Z,19.62
2023-04-18T13:00:17.085Z,19.53
2023-04-18T13:02:46.253Z,19.85
2023-04-18T13:05:18.142Z,20.10
2023-04-18T13:07:47.242Z,18.87
2023-04-18T13:10:17.651Z,19.05
2023-04-18T13:12:46.559Z,19.70
2023-04-18T13:15:15.849Z,20.33
2023-04-18T13:17:44.738Z,22.29
2023-04-18T13:20:13.646Z,20.49
2023-04-18T13:22:43.712Z,20.59
2023-04-18T13:25:12.633Z,20.41
2023-04-18T13:27:42.175Z,25.00
2023-04-18T13:30:12.775Z,26.87
2023-04-18T13:32:41.846Z,27.58
2023-04-18T13:35:13.025Z,26.79
2023-04-18T13:37:42.856Z,27.50
2023-04-18T13:40:11.451Z,25.28
2023-04-18T13:42:39.833Z,25.12
2023-04-18T13:45:08.554Z,25.19
2023-04-18T13:47:37.236Z,23.24
2023-04-18T13:50:05.751Z,27.20
2023-04-18T13:52:33.884Z,27.51
2023-04-18T13:55:03.767Z,26.98
2023-04-18T13:57:33.713Z,25.52
2023-04-18T14:00:01.775Z,22.79
2023-04-18T14:02:39.951Z,23.64
2023-04-18T14:05:09.463Z,26.18
2023-04-18T14:07:38.317Z,24.68
2023-04-18T14:10:09.015Z,21.54
2023-04-18T14:12:36.972Z,23.47
2023-04-18T14:15:05.490Z,26.71
2023-04-18T14:17:33.465Z,25.06
2023-04-18T14:20:02.432Z,26.59
2023-04-18T14:22:30.414Z,23.77
2023-04-18T14:24:58.332Z,22.55
2023-04-18T14:27:27.791Z,21.12
2023-04-18T14:29:55.838Z,21.39
2023-04-18T14:32:24.055Z,22.80
2023-04-18T14:34:52.575Z,25.37
2023-04-18T14:37:20.438Z,25.51
2023-04-18T14:39:48.621Z,25.97
2023-04-18T14:42:17.146Z,24.75
2023-04-18T14:44:46.465Z,21.03
2023-04-18T14:47:14.995Z,23.20
2023-04-18T14:49:43.004Z,26.01
2023-04-18T14:52:10.944Z,27.07
2023-04-18T14:54:38.826Z,25.87
2023-04-18T14:57:08.260Z,23.32
2023-04-18T14:59:36.258Z,20.87
2023-04-18T15:02:05.674Z,19.70
2023-04-18T15:04:33.986Z,18.88
2023-04-18T15:07:02.416Z,18.76
2023-04-18T15:09:30.633Z,18.46
2023-04-18T15:12:00.049Z,18.28
2023-04-18T15:14:27.999Z,18.34
2023-04-18T15:16:56.001Z,18.71
2023-04-18T15:19:25.406Z,20.81
2023-04-18T15:21:53.260Z,21.59
2023-04-18T15:24:21.205Z,21.37
2023-04-18T15:26:49.184Z,21.38
2023-04-18T15:29:17.116Z,21.02
2023-04-18T15:31:45.150Z,20.63
2023-04-18T15:34:13.412Z,20.90
2023-04-18T15:36:43.008Z,20.72
2023-04-18T15:39:11.032Z,21.07
2023-04-18T15:41:39.126Z,21.60
2023-04-18T15:44:10.529Z,21.58
2023-04-18T15:46:38.726Z,20.22
2023-04-18T15:49:06.692Z,20.76
2023-04-18T15:51:34.636Z,19.61
2023-04-18T15:54:04.084Z,19.68
2023-04-18T15:56:33.519Z,20.21
2023-04-18T15:59:04.722Z,19.29
2023-04-18T16:01:33.134Z,20.79
2023-04-18T16:04:01.216Z,21.08
2023-04-18T16:06:31.220Z,20.18
2023-04-18T16:08:59.280Z,19.85
2023-04-18T16:11:29.015Z,19.69
2023-04-18T16:13:56.975Z,21.00
2023-04-18T16:16:24.886Z,19.84
2023-04-18T16:18:53.089Z,19.51
2023-04-18T16:21:21.003Z,18.87
2023-04-18T16:23:49.481Z,19.37
2023-04-18T16:26:17.516Z,19.10
2023-04-18T16:28:48.154Z,19.69
2023-04-18T16:31:16.548Z,19.63
2023-04-18T16:33:45.310Z,19.27
2023-04-18T16:36:13.286Z,19.60
2023-04-18T16:38:41.225Z,19.47
2023-04-18T16:41:09.322Z,21.38
2023-04-18T16:43:38.042Z,21.05
2023-04-18T16:46:07.530Z,20.81
2023-04-18T16:48:37.812Z,21.08
2023-04-18T16:51:06.723Z,20.79
2023-04-18T16:53:34.618Z,20.90
2023-04-18T16:56:03.278Z,20.52
2023-04-18T16:58:31.366Z,20.52
2023-04-18T17:00:59.578Z,22.32
2023-04-18T17:03:29.042Z,21.94
2023-04-18T17:05:57.017Z,23.60
2023-04-18T17:08:25.897Z,23.82
2023-04-18T17:10:53.944Z,23.12
2023-04-18T17:13:26.707Z,22.49
2023-04-18T17:15:55.020Z,23.63
2023-04-18T17:18:23.126Z,23.45
2023-04-18T17:20:52.423Z,23.17
2023-04-18T17:23:21.778Z,22.02
2023-04-18T17:25:49.818Z,21.33
2023-04-18T17:28:17.776Z,19.28
2023-04-18T17:30:45.908Z,19.10
2023-04-18T17:33:13.933Z,18.50
2023-04-18T17:35:42.412Z,18.27
2023-04-18T17:38:11.749Z,17.37
2023-04-18T17:40:40.523Z,19.04
2023-04-18T17:43:08.595Z,18.64
2023-04-18T17:45:37.265Z,18.02
2023-04-18T17:48:05.985Z,17.70
2023-04-18T17:50:36.983Z,17.63
2023-04-18T17:53:05.037Z,17.79
2023-04-18T17:55:34.339Z,17.66
2023-04-18T17:58:02.330Z,17.39
2023-04-18T18:00:31.408Z,16.99
2023-04-18T18:03:01.373Z,17.09
2023-04-18T18:05:30.255Z,16.76
2023-04-18T18:07:58.371Z,16.57
2023-04-18T18:10:26.738Z,16.19
2023-04-18T18:12:56.165Z,16.20
2023-04-18T18:15:25.143Z,16.07
2023-04-18T18:17:53.244Z,15.54
2023-04-18T18:20:21.267Z,15.29
2023-04-18T18:22:49.197Z,15.30
2023-04-18T18:25:17.186Z,14.98
2023-04-18T18:27:45.085Z,15.31
2023-04-18T18:30:14.726Z,14.85
2023-04-18T18:32:42.688Z,14.71
2023-04-18T18:35:10.948Z,14.73
2023-04-18T18:37:39.064Z,14.57
2023-04-18T18:40:08.410Z,14.85
2023-04-18T18:42:37.235Z,14.61
2023-04-18T18:45:07.543Z,13.82
2023-04-18T18:47:39.658Z,14.60
2023-04-18T18:50:09.546Z,14.55
2023-04-18T18:52:39.960Z,14.21
2023-04-18T18:55:09.046Z,14.35
2023-04-18T18:57:37.629Z,13.88
2023-04-18T19:00:09.401Z,14.19
2023-04-18T19:02:38.994Z,14.08
2023-04-18T19:05:08.117Z,13.93
2023-04-18T19:07:35.997Z,13.86
2023-04-18T19:10:04.710Z,14.03
2023-04-18T19:12:32.810Z,13.39
2023-04-18T19:15:00.736Z,14.06
2023-04-18T19:17:28.698Z,13.69
2023-04-18T19:19:59.276Z,13.97
2023-04-18T19:22:27.299Z,13.72
2023-04-18T19:24:55.110Z,13.58
2023-04-18T19:27:23.284Z,13.12
2023-04-18T19:29:51.310Z,13.39
2023-04-18T19:32:19.235Z,13.15
2023-04-18T19:34:47.293Z,13.20
2023-04-18T19:37:16.703Z,13.56
2023-04-18T19:39:44.647Z,13.53
2023-04-18T19:42:12.689Z,13.36
2023-04-18T19:44:40.539Z,12.95
2023-04-18T19:47:08.686Z,12.74
2023-04-18T19:49:36.689Z,13.33
2023-04-18T19:52:04.570Z,12.83
2023-04-18T19:54:34.327Z,13.13
2023-04-18T19:57:02.738Z,12.79
2023-04-18T19:59:30.668Z,12.86
2023-04-18T20:02:01.451Z,12.94
2023-04-18T20:04:34.210Z,12.95
2023-04-18T20:07:02.456Z,13.07
2023-04-18T20:09:30.603Z,13.60
2023-04-18T20:12:01.897Z,13.43
2023-04-18T20:14:30.338Z,13.41
2023-04-18T20:16:58.355Z,13.29
2023-04-18T20:19:30.579Z,13.47
2023-04-18T20:21:58.694Z,13.25
2023-04-18T20:24:28.118Z,13.78
2023-04-18T20:26:57.278Z,13.42
2023-04-18T20:29:26.649Z,13.50
2023-04-18T20:31:57.099Z,13.64
2023-04-18T20:34:25.087Z,13.24
2023-04-18T20:36:53.072Z,13.58
2023-04-18T20:39:21.241Z,13.67
2023-04-18T20:41:51.348Z,13.49
2023-04-18T20:44:20.930Z,13.40
2023-04-18T20:46:50.310Z,13.23
2023-04-18T20:49:18.257Z,13.43
2023-04-18T20:51:46.244Z,13.14
2023-04-18T20:54:14.365Z,13.25
2023-04-18T20:56:42.607Z,13.47
2023-04-18T20:59:10.519Z,13.60
2023-04-18T21:01:38.520Z,13.62
2023-04-18T21:04:07.978Z,13.31
2023-04-18T21:06:36.570Z,13.36
2023-04-18T21:09:04.818Z,13.15
2023-04-18T21:11:32.794Z,13.53
2023-04-18T21:14:00.918Z,13.48
2023-04-18T21:16:28.941Z,13.35
2023-04-18T21:18:56.899Z,13.34
2023-04-18T21:21:27.237Z,13.00
2023-04-18T21:23:55.261Z,13.25
2023-04-18T21:26:23.145Z,13.43
2023-04-18T21:28:56.134Z,13.75
2023-04-18T21:31:24.528Z,13.64
2023-04-18T21:33:55.797Z,13.69
2023-04-18T21:36:24.828Z,13.97
2023-04-18T21:38:54.495Z,13.67
2023-04-18T21:41:23.007Z,13.80
2023-04-18T21:43:51.341Z,13.50
2023-04-18T21:46:19.502Z,13.27
2023-04-18T21:48:48.411Z,13.63
2023-04-18T21:51:17.778Z,13.33
2023-04-18T21:53:45.700Z,13.53
2023-04-18T21:56:15.152Z,13.70
2023-04-18T21:58:43.028Z,13.92
2023-04-18T22:01:10.957Z,13.35
2023-04-18T22:03:39.172Z,13.39
2023-04-18T22:06:07.580Z,13.91
2023-04-18T22:08:36.009Z,13.97
2023-04-18T22:11:09.272Z,14.04
2023-04-18T22:13:38.747Z,13.69
2023-04-18T22:16:08.359Z,13.96
2023-04-18T22:18:37.970Z,13.74
2023-04-18T22:21:06.780Z,14.02
2023-04-18T22:23:34.792Z,13.93
2023-04-18T22:26:02.708Z,14.36
2023-04-18T22:28:30.902Z,13.95
2023-04-18T22:31:00.302Z,14.23
2023-04-18T22:33:28.678Z,14.10
2023-04-18T22:35:56.547Z,14.03
2023-04-18T22:38:26.091Z,13.85
2023-04-18T22:40:54.128Z,14.18
2023-04-18T22:43:23.800Z,13.81
2023-04-18T22:45:52.414Z,13.76
2023-04-18T22:48:21.724Z,13.95
2023-04-18T22:50:49.897Z,13.60
2023-04-18T22:53:18.236Z,13.65
2023-04-18T22:55:46.913Z,13.85
2023-04-18T22:58:14.876Z,14.22
2023-04-18T23:00:43.111Z,14.01
2023-04-18T23:03:11.425Z,14.66
2023-04-18T23:05:41.408Z,14.18
2023-04-18T23:08:09.289Z,14.31
2023-04-18T23:10:37.195Z,14.24
2023-04-18T23:13:05.192Z,13.95
2023-04-18T23:15:33.274Z,13.97
2023-04-18T23:18:01.375Z,13.93
2023-04-18T23:20:29.311Z,14.09
2023-04-18T23:22:58.607Z,14.15
2023-04-18T23:25:26.523Z,14.13
2023-04-18T23:27:54.380Z,14.14
2023-04-18T23:30:22.280Z,14.54
2023-04-18T23:32:50.227Z,14.09
2023-04-18T23:35:18.532Z,14.32
2023-04-18T23:37:46.467Z,14.03
2023-04-18T23:40:15.642Z,13.92
2023-04-18T23:42:43.879Z,14.10
2023-04-18T23:45:12.548Z,14.04
2023-04-18T23:47:40.494Z,13.94
2023-04-18T23:50:09.633Z,14.50
2023-04-18T23:52:38.531Z,13.81
2023-04-18T23:55:07.317Z,14.45
2023-04-18T23:57:36.689Z,14.25
